createdAt,value
2023-04-26T00:01:17.461Z,1.60
2023-04-26T00:04:20.290Z,1.48
2023-04-26T00:07:24.992Z,1.90
2023-04-26T00:10:27.365Z,1.50
2023-04-26T00:13:29.888Z,2.00
2023-04-26T00:16:32.421Z,1.48
2023-04-26T00:19:34.859Z,1.80
2023-04-26T00:22:37.898Z,1.50
2023-04-26T00:25:40.576Z,1.77
2023-04-26T00:28:42.940Z,1.85
2023-04-26T00:31:45.408Z,2.00
2023-04-26T00:34:48.668Z,2.58
2023-04-26T00:37:53.396Z,1.83
2023-04-26T00:40:56.155Z,1.20
2023-04-26T00:43:58.561Z,1.85
2023-04-26T00:47:01.710Z,1.42
2023-04-26T00:50:04.777Z,1.40
2023-04-26T00:53:08.448Z,1.13
2023-04-26T00:56:12.690Z,2.80
2023-04-26T00:59:15.180Z,1.80
2023-04-26T01:02:17.821Z,1.90
2023-04-26T01:05:21.015Z,2.35
2023-04-26T01:08:24.231Z,1.47
2023-04-26T01:11:26.967Z,1.60
2023-04-26T01:14:29.521Z,1.60
2023-04-26T01:17:32.290Z,1.40
2023-04-26T01:20:34.897Z,1.52
2023-04-26T01:23:37.248Z,2.10
2023-04-26T01:26:45.839Z,2.40
2023-04-26T01:29:49.879Z,1.13
2023-04-26T01:32:52.363Z,1.55
2023-04-26T01:35:54.824Z,1.67
2023-04-26T01:38:58.363Z,1.50
2023-04-26T01:42:00.839Z,1.70
2023-04-26T01:45:03.599Z,1.63
2023-04-26T01:48:26.015Z,1.88
2023-04-26T01:51:28.518Z,1.27
2023-04-26T01:54:30.970Z,2.17
2023-04-26T01:57:35.903Z,1.50
2023-04-26T02:00:38.282Z,1.63
2023-04-26T02:03:40.884Z,1.35
2023-04-26T02:06:43.387Z,1.17
2023-04-26T02:09:46.660Z,1.95
2023-04-26T02:12:49.107Z,1.48
2023-04-26T02:15:51.881Z,1.40
2023-04-26T02:18:55.187Z,1.35
2023-04-26T02:21:58.584Z,1.77
2023-04-26T02:25:01.050Z,1.30
2023-04-26T02:28:04.394Z,1.50
2023-04-26T02:31:06.967Z,1.33
2023-04-26T02:34:09.737Z,1.40
2023-04-26T02:37:12.151Z,1.42
2023-04-26T02:40:15.564Z,3.63
2023-04-26T02:43:18.118Z,1.90
2023-04-26T02:46:21.169Z,1.63
2023-04-26T02:49:24.024Z,1.63
2023-04-26T02:52:27.265Z,1.10
2023-04-26T02:55:29.768Z,1.30
2023-04-26T02:58:32.370Z,2.40
2023-04-26T03:01:35.026Z,1.10
2023-04-26T03:04:38.477Z,1.10
2023-04-26T03:07:40.925Z,1.13
2023-04-26T03:10:46.068Z,1.42
2023-04-26T03:13:48.562Z,0.80
2023-04-26T03:16:51.338Z,1.50
2023-04-26T03:19:53.962Z,1.40
2023-04-26T03:22:56.529Z,1.70
2023-04-26T03:25:59.035Z,1.08
2023-04-26T03:29:03.489Z,1.70
2023-04-26T03:32:07.375Z,1.83
2023-04-26T03:35:10.622Z,1.42
2023-04-26T03:38:13.297Z,1.20
2023-04-26T03:41:16.873Z,1.30
2023-04-26T03:44:19.475Z,2.40
2023-04-26T03:47:21.879Z,2.17
2023-04-26T03:50:25.029Z,1.00
2023-04-26T03:53:27.724Z,1.30
2023-04-26T03:56:30.205Z,1.60
2023-04-26T03:59:32.934Z,1.35
2023-04-26T04:02:35.675Z,1.17
2023-04-26T04:05:38.422Z,0.98
2023-04-26T04:08:41.028Z,1.30
2023-04-26T04:11:45.160Z,0.90
2023-04-26T04:14:48.890Z,1.30
2023-04-26T04:17:52.049Z,4.53
2023-04-26T04:20:54.629Z,4.07
2023-04-26T04:23:57.094Z,1.90
2023-04-26T04:27:01.268Z,6.05
2023-04-26T04:30:10.028Z,4.07
2023-04-26T04:33:12.939Z,3.20
2023-04-26T04:36:16.951Z,3.92
2023-04-26T04:39:20.711Z,1.58
2023-04-26T04:42:23.634Z,4.70
2023-04-26T04:45:27.129Z,5.10
2023-04-26T04:48:31.220Z,2.53
2023-04-26T04:51:33.715Z,2.85
2023-04-26T04:54:36.398Z,1.40
2023-04-26T04:57:40.615Z,2.10
2023-04-26T05:00:45.788Z,5.28
2023-04-26T05:03:56.012Z,4.70
2023-04-26T05:06:59.246Z,3.35
2023-04-26T05:10:02.164Z,4.45
2023-04-26T05:13:06.113Z,4.65
2023-04-26T05:16:09.194Z,4.45
2023-04-26T05:19:13.455Z,4.87
2023-04-26T05:22:18.802Z,6.95
2023-04-26T05:25:22.685Z,3.22
2023-04-26T05:28:29.814Z,3.58
2023-04-26T05:31:53.632Z,4.55
2023-04-26T05:35:28.266Z,7.20
2023-04-26T05:38:30.833Z,3.00
2023-04-26T05:41:33.388Z,2.70
2023-04-26T05:44:36.175Z,4.75
2023-04-26T05:47:39.527Z,5.05
2023-04-26T05:50:42.334Z,4.27
2023-04-26T05:53:45.218Z,6.53
2023-04-26T05:56:47.814Z,7.50
2023-04-26T05:59:50.577Z,6.50
2023-04-26T06:02:56.173Z,5.57
2023-04-26T06:05:59.690Z,6.97
2023-04-26T06:09:04.886Z,6.95
2023-04-26T06:12:10.180Z,6.15
2023-04-26T06:15:16.497Z,7.57
2023-04-26T06:18:19.770Z,9.05
2023-04-26T06:21:26.481Z,16.30
2023-04-26T06:24:30.235Z,9.35
2023-04-26T06:27:32.687Z,9.90
2023-04-26T06:30:35.347Z,6.95
2023-04-26T06:33:38.962Z,15.95
2023-04-26T06:36:41.383Z,6.37
2023-04-26T06:39:44.098Z,11.07
2023-04-26T06:42:47.653Z,9.55
2023-04-26T06:46:11.376Z,11.15
2023-04-26T06:49:15.229Z,10.25
2023-04-26T06:52:17.917Z,10.70
2023-04-26T06:55:21.408Z,9.18
2023-04-26T06:58:24.283Z,9.68
2023-04-26T07:01:33.946Z,8.88
2023-04-26T07:04:36.936Z,11.55
2023-04-26T07:07:39.730Z,17.80
2023-04-26T07:10:43.311Z,13.75
2023-04-26T07:17:03.922Z,18.80
2023-04-26T07:20:08.947Z,16.45
2023-04-26T07:23:11.322Z,9.23
2023-04-26T07:26:13.709Z,17.20
2023-04-26T07:29:16.555Z,12.77
2023-04-26T07:32:18.934Z,21.23
2023-04-26T07:35:21.400Z,14.75
2023-04-26T07:38:25.384Z,20.57
2023-04-26T07:41:27.804Z,14.27
2023-04-26T07:44:30.284Z,16.25
2023-04-26T07:47:32.957Z,17.70
2023-04-26T07:50:35.800Z,15.13
2023-04-26T07:53:41.509Z,11.47
2023-04-26T07:56:44.257Z,13.85
2023-04-26T07:59:46.674Z,16.33
2023-04-26T08:02:49.338Z,11.85
2023-04-26T08:05:51.943Z,11.80
2023-04-26T08:08:54.515Z,16.20
2023-04-26T08:11:57.440Z,12.18
2023-04-26T08:15:05.044Z,21.23
2023-04-26T08:18:07.599Z,13.93
2023-04-26T08:21:09.999Z,16.95
2023-04-26T08:24:12.564Z,19.53
2023-04-26T08:27:15.026Z,14.57
2023-04-26T08:30:17.629Z,14.73
2023-04-26T08:33:20.171Z,26.08
2023-04-26T08:36:22.681Z,19.15
2023-04-26T08:39:25.333Z,11.47
2023-04-26T08:42:28.741Z,11.77
2023-04-26T08:45:31.750Z,12.75
2023-04-26T08:48:34.646Z,14.93
2023-04-26T08:51:37.544Z,18.08
2023-04-26T08:54:42.812Z,22.37
2023-04-26T08:57:47.340Z,11.13
2023-04-26T09:00:50.716Z,11.10
2023-04-26T09:03:55.322Z,13.10
2023-04-26T09:07:02.789Z,13.85
2023-04-26T09:10:06.410Z,12.97
2023-04-26T09:13:08.813Z,15.48
2023-04-26T09:16:11.923Z,12.30
2023-04-26T09:19:40.043Z,12.63
2023-04-26T09:22:53.211Z,16.52
2023-04-26T09:26:15.073Z,14.93
2023-04-26T09:29:19.214Z,13.30
2023-04-26T09:32:21.752Z,13.52
2023-04-26T09:35:31.850Z,18.90
2023-04-26T09:38:42.429Z,11.75
2023-04-26T09:41:47.873Z,12.20
2023-04-26T09:44:53.362Z,9.45
2023-04-26T09:47:56.279Z,12.48
2023-04-26T09:51:05.575Z,9.55
2023-04-26T09:54:08.033Z,16.30
2023-04-26T09:57:12.086Z,11.20
2023-04-26T10:00:16.252Z,14.20
2023-04-26T10:03:23.379Z,7.85
2023-04-26T10:06:28.665Z,14.27
2023-04-26T10:09:31.870Z,12.05
2023-04-26T10:12:34.459Z,8.37
2023-04-26T10:15:37.248Z,13.32
2023-04-26T10:18:39.628Z,5.88
2023-04-26T10:21:44.144Z,8.90
2023-04-26T10:24:46.962Z,13.27
2023-04-26T10:27:50.117Z,8.67
2023-04-26T10:30:59.928Z,10.65
2023-04-26T10:34:21.656Z,10.07
2023-04-26T10:37:24.156Z,10.75
2023-04-26T10:40:38.979Z,10.32
2023-04-26T10:43:43.034Z,14.07
2023-04-26T10:46:51.494Z,11.52
2023-04-26T10:50:06.190Z,8.43
2023-04-26T10:53:14.846Z,14.07
2023-04-26T10:56:23.605Z,20.40
2023-04-26T11:02:52.377Z,13.05
2023-04-26T11:05:55.859Z,9.13
2023-04-26T11:09:00.135Z,9.07
2023-04-26T11:12:12.903Z,8.85
2023-04-26T11:15:15.439Z,8.10
2023-04-26T11:18:21.093Z,8.88
2023-04-26T11:21:23.553Z,11.18
2023-04-26T11:24:27.167Z,9.90
2023-04-26T11:27:29.485Z,11.40
2023-04-26T11:30:40.430Z,8.33
2023-04-26T11:33:42.831Z,9.77
2023-04-26T11:36:46.525Z,7.38
2023-04-26T11:39:49.052Z,9.43
2023-04-26T11:42:51.396Z,7.90
2023-04-26T11:45:59.057Z,11.47
2023-04-26T11:49:01.470Z,8.32
2023-04-26T11:52:05.315Z,7.53
2023-04-26T11:55:08.275Z,11.98
2023-04-26T11:58:12.953Z,8.35
2023-04-26T12:01:26.667Z,10.83
2023-04-26T12:04:30.794Z,9.23
2023-04-26T12:07:39.721Z,5.88
2023-04-26T12:10:42.375Z,8.60
2023-04-26T12:13:46.649Z,6.22
2023-04-26T12:16:49.304Z,11.87
2023-04-26T12:19:51.870Z,5.80
2023-04-26T12:23:01.748Z,11.40
2023-04-26T12:26:04.979Z,8.25
2023-04-26T12:29:07.588Z,8.55
2023-04-26T12:32:10.050Z,8.90
2023-04-26T12:35:12.433Z,7.90
2023-04-26T12:38:15.869Z,6.60
2023-04-26T12:41:18.329Z,6.47
2023-04-26T12:44:22.525Z,6.50
2023-04-26T12:47:25.317Z,6.33
2023-04-26T12:50:27.793Z,6.38
2023-04-26T12:53:30.356Z,4.68
2023-04-26T12:56:34.177Z,16.15
2023-04-26T12:59:36.576Z,9.20
2023-04-26T13:02:39.147Z,10.43
2023-04-26T13:05:41.612Z,9.65
2023-04-26T13:08:43.965Z,9.85
2023-04-26T13:11:46.939Z,11.70
2023-04-26T13:14:49.394Z,11.45
2023-04-26T13:17:51.869Z,13.50
2023-04-26T13:20:54.437Z,15.20
2023-04-26T13:23:56.950Z,13.70
2023-04-26T13:26:59.714Z,16.05
2023-04-26T13:30:02.174Z,17.85
2023-04-26T13:33:04.924Z,11.83
2023-04-26T13:36:07.641Z,12.63
2023-04-26T13:39:10.320Z,5.93
2023-04-26T13:42:14.252Z,9.45
2023-04-26T13:45:18.768Z,11.52
2023-04-26T13:48:21.899Z,12.57
2023-04-26T13:51:27.486Z,7.05
2023-04-26T13:54:30.685Z,14.10
2023-04-26T13:57:33.041Z,11.45
2023-04-26T14:00:35.777Z,11.38
2023-04-26T14:03:38.288Z,13.37
2023-04-26T14:06:41.129Z,9.18
2023-04-26T14:09:43.529Z,9.43
2023-04-26T14:12:46.122Z,10.75
2023-04-26T14:15:48.551Z,11.00
2023-04-26T14:18:51.618Z,8.40
2023-04-26T14:21:55.411Z,9.45
2023-04-26T14:24:57.861Z,15.30
2023-04-26T14:28:01.403Z,10.40
2023-04-26T14:31:03.950Z,7.28
2023-04-26T14:34:06.921Z,10.40
2023-04-26T14:37:09.385Z,9.88
2023-04-26T14:40:12.263Z,13.30
2023-04-26T14:43:14.627Z,11.02
2023-04-26T14:46:17.140Z,19.17
2023-04-26T14:49:19.938Z,13.03
2023-04-26T14:52:26.921Z,10.95
2023-04-26T14:55:29.560Z,9.73
2023-04-26T14:58:31.948Z,5.88
2023-04-26T15:01:34.474Z,5.65
2023-04-26T15:04:38.026Z,12.50
2023-04-26T15:07:40.896Z,11.65
2023-04-26T15:10:43.312Z,5.40
2023-04-26T15:13:46.158Z,8.68
2023-04-26T15:16:48.680Z,6.97
2023-04-26T15:19:51.166Z,6.07
2023-04-26T15:22:53.569Z,15.77
2023-04-26T15:25:56.438Z,7.63
2023-04-26T15:29:24.187Z,23.65
2023-04-26T15:32:26.824Z,6.78
2023-04-26T15:35:29.332Z,5.63
2023-04-26T15:38:32.124Z,7.90
2023-04-26T15:41:34.613Z,14.13
2023-04-26T15:44:37.062Z,13.20
2023-04-26T15:47:39.568Z,6.03
2023-04-26T15:50:42.180Z,10.17
2023-04-26T15:53:44.590Z,6.45
2023-04-26T15:56:47.208Z,7.88
2023-04-26T15:59:49.546Z,9.70
2023-04-26T16:02:52.181Z,9.05
2023-04-26T16:05:54.662Z,12.90
2023-04-26T16:08:57.132Z,7.85
2023-04-26T16:11:59.484Z,20.23
2023-04-26T16:15:01.814Z,8.88
2023-04-26T16:18:04.365Z,11.45
2023-04-26T16:21:09.541Z,12.23
2023-04-26T16:24:12.416Z,11.95
2023-04-26T16:27:14.880Z,11.38
2023-04-26T16:30:18.985Z,12.73
2023-04-26T16:33:23.213Z,17.05
2023-04-26T16:36:25.917Z,13.63
2023-04-26T16:39:28.754Z,6.05
2023-04-26T16:42:31.130Z,9.88
2023-04-26T16:45:33.472Z,6.15
2023-04-26T16:48:37.210Z,7.63
2023-04-26T16:51:39.660Z,6.47
2023-04-26T16:54:42.199Z,7.22
2023-04-26T16:57:44.602Z,7.47
2023-04-26T17:00:47.255Z,10.95
2023-04-26T17:03:49.803Z,11.35
2023-04-26T17:06:52.348Z,7.00
2023-04-26T17:09:55.395Z,6.85
2023-04-26T17:12:57.805Z,6.22
2023-04-26T17:16:00.289Z,8.40
2023-04-26T17:19:02.657Z,10.23
2023-04-26T17:22:06.341Z,6.73
2023-04-26T17:25:09.050Z,6.72
2023-04-26T17:28:11.769Z,7.38
2023-04-26T17:31:14.174Z,7.00
2023-04-26T17:34:17.072Z,7.10
2023-04-26T17:37:19.571Z,6.27
2023-04-26T17:40:21.972Z,6.25
2023-04-26T17:43:24.382Z,8.10
2023-04-26T17:46:26.742Z,6.95
2023-04-26T17:49:29.300Z,7.05
2023-04-26T17:52:32.173Z,7.37
2023-04-26T17:55:34.680Z,6.75
2023-04-26T17:58:37.131Z,9.43
2023-04-26T18:01:39.528Z,5.88
2023-04-26T18:04:42.844Z,4.70
2023-04-26T18:07:45.546Z,7.60
2023-04-26T18:10:48.691Z,4.72
2023-04-26T18:13:51.156Z,5.78
2023-04-26T18:16:53.726Z,6.70
2023-04-26T18:19:56.514Z,5.72
2023-04-26T18:22:58.886Z,7.53
2023-04-26T18:26:01.231Z,6.07
2023-04-26T18:29:03.629Z,8.23
2023-04-26T18:32:06.038Z,6.68
2023-04-26T18:35:09.613Z,6.07
2023-04-26T18:38:11.997Z,4.83
2023-04-26T18:41:14.374Z,6.10
2023-04-26T18:44:16.946Z,6.60
2023-04-26T18:47:19.294Z,4.75
2023-04-26T18:50:21.906Z,4.35
2023-04-26T18:53:24.458Z,4.67
2023-04-26T18:56:27.947Z,6.07
2023-04-26T18:59:30.570Z,7.22
2023-04-26T19:02:34.450Z,7.97
2023-04-26T19:05:42.185Z,4.43
2023-04-26T19:08:45.130Z,5.73
2023-04-26T19:11:47.709Z,6.38
2023-04-26T19:14:50.264Z,5.78
2023-04-26T19:17:52.803Z,5.57
2023-04-26T19:20:55.684Z,5.40
2023-04-26T19:23:58.606Z,4.77
2023-04-26T19:27:02.883Z,3.40
2023-04-26T19:30:06.952Z,5.53
2023-04-26T19:33:09.473Z,4.57
2023-04-26T19:36:12.056Z,5.32
2023-04-26T19:39:16.170Z,7.17
2023-04-26T19:42:19.337Z,4.82
2023-04-26T19:45:22.742Z,3.33
2023-04-26T19:48:26.390Z,3.95
2023-04-26T19:51:28.974Z,5.07
2023-04-26T19:54:32.401Z,4.37
2023-04-26T19:57:35.001Z,3.03
2023-04-26T20:00:38.696Z,3.72
2023-04-26T20:03:41.610Z,5.40
2023-04-26T20:06:44.297Z,4.75
2023-04-26T20:09:46.790Z,5.83
2023-04-26T20:12:49.670Z,4.25
2023-04-26T20:15:52.258Z,5.25
2023-04-26T20:18:54.839Z,3.63
2023-04-26T20:21:57.353Z,4.85
2023-04-26T20:24:59.887Z,2.67
2023-04-26T20:28:04.077Z,4.93
2023-04-26T20:31:06.699Z,6.53
2023-04-26T20:34:09.002Z,5.88
2023-04-26T20:37:11.921Z,5.00
2023-04-26T20:40:14.357Z,7.70
2023-04-26T20:43:16.840Z,3.92
2023-04-26T20:46:19.250Z,7.03
2023-04-26T20:49:21.680Z,4.93
2023-04-26T20:52:24.091Z,4.60
2023-04-26T20:55:26.869Z,3.83
2023-04-26T20:58:29.919Z,3.92
2023-04-26T21:01:33.894Z,2.75
2023-04-26T21:04:38.684Z,3.97
2023-04-26T21:07:41.424Z,3.88
2023-04-26T21:10:43.822Z,4.73
2023-04-26T21:13:47.090Z,4.25
2023-04-26T21:16:49.395Z,2.67
2023-04-26T21:19:53.681Z,4.00
2023-04-26T21:22:56.132Z,3.88
2023-04-26T21:25:58.503Z,4.77
2023-04-26T21:29:01.120Z,5.22
2023-04-26T21:32:03.847Z,3.60
2023-04-26T21:35:07.552Z,2.65
2023-04-26T21:38:09.914Z,3.28
2023-04-26T21:41:12.309Z,2.90
2023-04-26T21:44:14.681Z,4.00
2023-04-26T21:47:17.073Z,3.45
2023-04-26T21:50:19.649Z,3.05
2023-04-26T21:53:21.992Z,2.30
2023-04-26T21:56:24.377Z,3.50
2023-04-26T21:59:26.781Z,3.85
2023-04-26T22:02:29.266Z,2.35
2023-04-26T22:05:31.655Z,4.43
2023-04-26T22:08:34.736Z,3.25
2023-04-26T22:11:37.197Z,4.03
2023-04-26T22:14:39.499Z,1.98
2023-04-26T22:17:41.892Z,3.25
2023-04-26T22:20:44.314Z,2.38
2023-04-26T22:23:46.655Z,2.35
2023-04-26T22:26:49.053Z,2.30
2023-04-26T22:29:51.444Z,2.10
2023-04-26T22:32:55.629Z,2.75
2023-04-26T22:35:59.294Z,2.45
2023-04-26T22:39:01.896Z,3.00
2023-04-26T22:42:04.328Z,3.20
2023-04-26T22:45:07.873Z,4.10
2023-04-26T22:48:10.250Z,3.15
2023-04-26T22:51:12.661Z,2.35
2023-04-26T22:54:15.007Z,2.90
2023-04-26T22:57:18.482Z,2.77
2023-04-26T23:00:22.076Z,3.58
2023-04-26T23:03:24.984Z,3.58
2023-04-26T23:06:28.082Z,2.35
2023-04-26T23:09:30.462Z,2.47
2023-04-26T23:12:33.448Z,4.30
2023-04-26T23:15:35.789Z,2.30
2023-04-26T23:18:38.116Z,2.40
2023-04-26T23:21:40.673Z,3.10
2023-04-26T23:24:42.991Z,3.67
2023-04-26T23:27:45.742Z,2.77
2023-04-26T23:30:48.639Z,3.65
2023-04-26T23:33:51.162Z,2.00
2023-04-26T23:36:53.525Z,2.15
2023-04-26T23:39:55.876Z,1.85
2023-04-26T23:42:58.217Z,2.20
2023-04-26T23:46:00.599Z,2.30
2023-04-26T23:49:02.991Z,2.58
2023-04-26T23:52:05.470Z,2.38
2023-04-26T23:55:08.229Z,2.33
2023-04-26T23:58:10.580Z,4.20
